Time;durP1;ratioP1;P1;durP2;ratioP2;P2;SDS_P1;SDS_P2;PMS_P1;PMS_P2;Temp;Humidity;BMP_temperature;BMP_pressure;BME280_temperature;BME280_humidity;BME280_pressure;Samples;Min_cycle;Max_cycle;Signal;HPM_P1;HPM_P2
2022/01/28 00:01:27;;;;;;;9.80;2.00;;;7.80;99.90;;;;;;5078061;28;20125;-70
2022/01/28 00:04:11;;;;;;;8.63;1.88;;;7.90;99.90;;;;;;5078006;28;20047;-68
2022/01/28 00:06:38;;;;;;;8.57;1.40;;;8.00;99.90;;;;;;5078607;28;20036;-69
2022/01/28 00:09:04;;;;;;;8.88;1.95;;;8.00;99.90;;;;;;5078490;28;20036;-70
2022/01/28 00:11:30;;;;;;;11.55;1.75;;;7.80;99.90;;;;;;5077548;28;20115;-69
2022/01/28 00:14:10;;;;;;;9.32;1.88;;;7.80;99.90;;;;;;5077769;28;20375;-69
2022/01/28 00:20:47;;;;;;;8.77;1.42;;;7.80;99.90;;;;;;5078046;28;20036;-70
2022/01/28 00:38:47;;;;;;;13.02;2.03;;;7.40;99.90;;;;;;5078065;28;20075;-69
2022/01/28 00:41:13;;;;;;;12.80;2.13;;;7.40;99.90;;;;;;5077916;28;20024;-70
2022/01/28 00:43:40;;;;;;;9.77;1.75;;;7.40;99.90;;;;;;5077931;28;20048;-69
2022/01/28 00:46:06;;;;;;;12.13;1.67;;;7.30;99.90;;;;;;5077765;28;20028;-69
2022/01/28 00:48:32;;;;;;;9.50;1.70;;;7.40;99.90;;;;;;5077579;28;20081;-69
2022/01/28 00:50:58;;;;;;;12.85;1.67;;;7.30;99.90;;;;;;5077478;28;20120;-69
2022/01/28 00:53:23;;;;;;;10.77;1.55;;;7.50;99.90;;;;;;5077722;28;20036;-68
2022/01/28 00:55:49;;;;;;;12.02;1.70;;;7.50;99.90;;;;;;5077672;28;20033;-70
2022/01/28 00:58:16;;;;;;;12.93;1.75;;;7.50;99.90;;;;;;5077501;28;20112;-70
2022/01/28 01:00:42;;;;;;;7.93;1.70;;;7.40;99.90;;;;;;5077438;28;20127;-69
2022/01/28 01:03:08;;;;;;;7.80;1.73;;;7.40;99.90;;;;;;5077435;28;20049;-70
2022/01/28 01:05:34;;;;;;;10.35;1.75;;;7.30;99.90;;;;;;5077520;28;20024;-69
2022/01/28 01:08:01;;;;;;;8.65;1.73;;;7.20;99.90;;;;;;5077442;28;20355;-69
2022/01/28 01:10:27;;;;;;;6.90;1.83;;;7.20;99.90;;;;;;5077406;28;20032;-69
2022/01/28 01:12:54;;;;;;;10.90;2.08;;;7.30;99.90;;;;;;5076617;28;20052;-69
2022/01/28 01:15:24;;;;;;;9.05;1.90;;;7.30;99.90;;;;;;5077278;28;20040;-69
2022/01/28 01:18:07;;;;;;;13.95;1.88;;;7.30;99.90;;;;;;5076889;28;20090;-69
2022/01/28 01:23:15;;;;;;;8.48;1.92;;;6.80;99.90;;;;;;5077264;28;20033;-70
2022/01/28 01:25:47;;;;;;;11.65;1.98;;;6.70;99.90;;;;;;5076517;28;20028;-70
2022/01/28 01:28:14;;;;;;;13.63;2.15;;;6.60;99.90;;;;;;5076545;28;20093;-70
2022/01/28 01:30:42;;;;;;;12.73;2.13;;;6.40;99.90;;;;;;5077136;28;20092;-70
2022/01/28 01:33:09;;;;;;;8.18;1.95;;;6.30;99.90;;;;;;5076332;28;20036;-70
2022/01/28 01:35:36;;;;;;;9.52;2.13;;;6.30;99.90;;;;;;5076843;28;20053;-70
2022/01/28 01:38:02;;;;;;;9.52;2.33;;;6.20;99.90;;;;;;5077283;28;20039;-71
2022/01/28 01:40:34;;;;;;;14.55;2.67;;;6.10;99.90;;;;;;5077361;28;20055;-69
2022/01/28 01:46:14;;;;;;;13.73;2.30;;;6.00;99.90;;;;;;5084081;28;20045;-70
2022/01/28 01:54:10;;;;;;;10.70;2.10;;;5.90;99.90;;;;;;5076878;28;20070;-70
2022/01/28 01:56:38;;;;;;;13.27;3.03;;;5.80;99.90;;;;;;5076786;28;20131;-69
2022/01/28 01:59:04;;;;;;;10.30;2.58;;;5.70;99.90;;;;;;5076831;28;20438;-71
2022/01/28 02:01:31;;;;;;;16.92;2.45;;;5.70;99.90;;;;;;5076676;28;20395;-70
2022/01/28 02:03:57;;;;;;;11.23;2.50;;;5.80;99.90;;;;;;5076325;28;20297;-69
2022/01/28 02:06:23;;;;;;;10.32;2.42;;;5.80;99.90;;;;;;5077029;28;20036;-70
2022/01/28 02:08:50;;;;;;;12.88;2.63;;;5.70;99.90;;;;;;5076795;28;20041;-69
2022/01/28 02:11:15;;;;;;;13.02;3.13;;;5.70;99.90;;;;;;5076659;28;20041;-70
2022/01/28 02:13:47;;;;;;;16.15;3.00;;;5.60;99.90;;;;;;5076845;28;20356;-70
2022/01/28 02:16:13;;;;;;;10.80;2.72;;;5.50;99.90;;;;;;5076645;28;20039;-70
2022/01/28 02:18:39;;;;;;;14.82;3.08;;;5.40;99.90;;;;;;5076007;28;20036;-70
2022/01/28 02:21:08;;;;;;;15.52;3.15;;;5.40;99.90;;;;;;5059176;28;20301;-70
2022/01/28 02:23:35;;;;;;;11.55;2.70;;;5.40;99.90;;;;;;5075797;28;20036;-70
2022/01/28 02:26:02;;;;;;;13.85;3.20;;;5.50;99.90;;;;;;5076894;28;20071;-71
2022/01/28 02:28:31;;;;;;;14.23;3.00;;;5.40;99.90;;;;;;5075772;28;20118;-70
2022/01/28 02:30:58;;;;;;;12.30;3.00;;;5.40;99.90;;;;;;5076561;28;20032;-70
2022/01/28 02:33:25;;;;;;;14.35;4.10;;;5.30;99.90;;;;;;5076593;28;20357;-70
2022/01/28 02:35:51;;;;;;;9.48;3.05;;;5.30;99.90;;;;;;5076191;28;20068;-70
2022/01/28 02:38:20;;;;;;;10.45;3.17;;;5.40;99.90;;;;;;5076378;28;20300;-70
2022/01/28 02:40:57;;;;;;;11.20;2.80;;;5.30;99.90;;;;;;5076727;28;20411;-70
2022/01/28 02:46:06;;;;;;;15.18;3.03;;;5.20;99.90;;;;;;5076368;28;20099;-69
2022/01/28 02:48:33;;;;;;;17.92;3.40;;;5.10;99.90;;;;;;5076419;28;20434;-70
2022/01/28 02:53:48;;;;;;;11.65;3.58;;;5.20;99.90;;;;;;5076531;28;20285;-70
2022/01/28 02:58:42;;;;;;;16.80;3.95;;;5.10;99.90;;;;;;5075465;28;20039;-70
2022/01/28 03:01:08;;;;;;;13.07;3.67;;;5.10;99.90;;;;;;5075761;28;20048;-71
2022/01/28 03:03:34;;;;;;;9.85;3.55;;;5.10;99.90;;;;;;5076438;28;20024;-70
2022/01/28 03:06:00;;;;;;;15.32;3.90;;;5.10;99.90;;;;;;5076039;28;20036;-71
2022/01/28 03:08:29;;;;;;;14.13;3.65;;;5.10;99.90;;;;;;5076174;28;20438;-70
2022/01/28 03:16:58;;;;;;;6.95;3.75;;;5.10;99.90;;;;;;5083738;28;20036;-70
2022/01/28 03:19:28;;;;;;;10.40;3.70;;;5.10;99.90;;;;;;5078899;28;20036;-71
2022/01/28 03:21:55;;;;;;;13.27;4.90;;;5.10;99.90;;;;;;5079557;28;20060;-71
2022/01/28 03:24:27;;;;;;;15.70;4.57;;;5.00;99.90;;;;;;5078687;28;20033;-70
2022/01/28 03:26:59;;;;;;;13.38;4.50;;;4.90;99.90;;;;;;5079537;28;20321;-69
2022/01/28 03:29:25;;;;;;;17.75;5.10;;;4.90;99.90;;;;;;5079585;28;20107;-69
2022/01/28 03:31:51;;;;;;;18.50;5.43;;;4.90;99.90;;;;;;5079361;28;20163;-70
2022/01/28 03:34:17;;;;;;;22.95;5.72;;;4.90;99.90;;;;;;5078468;28;20060;-69
2022/01/28 03:36:42;;;;;;;12.38;4.95;;;4.80;99.90;;;;;;5079231;28;20373;-69
2022/01/28 03:39:10;;;;;;;18.83;5.60;;;4.70;99.90;;;;;;5061879;28;20056;-70
2022/01/28 03:41:36;;;;;;;14.75;5.20;;;4.70;99.90;;;;;;5079394;28;20112;-70
2022/01/28 03:44:02;;;;;;;15.60;5.70;;;4.70;99.90;;;;;;5079116;28;20061;-70
2022/01/28 03:46:30;;;;;;;20.35;5.70;;;4.70;99.90;;;;;;5078717;28;20052;-70
2022/01/28 03:48:57;;;;;;;17.98;5.93;;;4.60;99.90;;;;;;5078376;28;20341;-70
2022/01/28 03:51:23;;;;;;;13.93;6.00;;;4.60;99.90;;;;;;5078347;28;20028;-70
2022/01/28 03:53:49;;;;;;;17.88;6.55;;;4.60;99.90;;;;;;5079110;28;20304;-70
2022/01/28 03:56:16;;;;;;;21.52;7.03;;;4.60;99.90;;;;;;5078781;28;20458;-70
2022/01/28 03:58:42;;;;;;;18.45;6.93;;;4.60;99.90;;;;;;5078888;28;20046;-69
2022/01/28 04:01:17;;;;;;;17.17;7.72;;;4.60;99.90;;;;;;5079110;28;20028;-70
2022/01/28 04:11:50;;;;;;;16.67;7.22;;;4.50;99.90;;;;;;5078665;28;20025;-70
2022/01/28 04:19:22;;;;;;;14.80;7.20;;;4.50;99.90;;;;;;5079332;28;20335;-70
2022/01/28 04:21:48;;;;;;;14.25;8.50;;;4.40;99.90;;;;;;5078406;28;20024;-70
2022/01/28 04:24:14;;;;;;;22.80;8.75;;;4.40;99.90;;;;;;5078355;28;20081;-70
2022/01/28 04:26:40;;;;;;;15.85;9.18;;;4.40;99.90;;;;;;5077043;28;20408;-70
2022/01/28 04:29:07;;;;;;;20.95;9.10;;;4.30;99.90;;;;;;5078207;28;20029;-70
2022/01/28 04:31:34;;;;;;;21.92;9.43;;;4.20;99.90;;;;;;5078251;28;20056;-70
2022/01/28 04:34:01;;;;;;;23.38;10.75;;;4.30;99.90;;;;;;5078276;28;20036;-70
2022/01/28 04:36:32;;;;;;;19.05;9.88;;;4.30;99.90;;;;;;5060524;28;20056;-70
2022/01/28 04:39:07;;;;;;;19.52;10.88;;;4.40;99.90;;;;;;5077369;28;20028;-70
2022/01/28 04:41:45;;;;;;;20.58;10.25;;;4.40;99.90;;;;;;5077207;28;20056;-69
2022/01/28 04:44:19;;;;;;;17.23;10.02;;;4.30;99.90;;;;;;5077356;28;20036;-69
2022/01/28 04:46:53;;;;;;;22.00;10.38;;;4.20;99.90;;;;;;5077423;28;20028;-69
2022/01/28 04:49:28;;;;;;;17.25;10.60;;;4.20;99.90;;;;;;5077199;28;20094;-69
2022/01/28 04:52:32;;;;;;;20.77;9.82;;;4.10;99.90;;;;;;5077978;28;20292;-69
2022/01/28 05:00:06;;;;;;;20.80;11.43;;;4.10;99.90;;;;;;5077593;28;20036;-71
2022/01/28 05:02:52;;;;;;;22.63;12.32;;;4.10;99.90;;;;;;5077562;28;20422;-70
2022/01/28 05:13:29;;;;;;;23.65;11.70;;;4.10;99.90;;;;;;5077072;28;20444;-70
2022/01/28 05:28:46;;;;;;;28.85;13.05;;;4.00;99.90;;;;;;5076658;28;20089;-70
2022/01/28 05:31:11;;;;;;;23.90;12.80;;;4.10;99.90;;;;;;5077190;28;20056;-70
2022/01/28 05:33:37;;;;;;;22.08;13.10;;;4.00;99.90;;;;;;5077300;28;20101;-70
2022/01/28 05:36:03;;;;;;;26.23;13.10;;;4.00;99.90;;;;;;5077092;28;20070;-71
2022/01/28 05:38:29;;;;;;;21.77;12.80;;;4.10;99.90;;;;;;5076559;28;20040;-71
2022/01/28 05:40:55;;;;;;;29.73;13.80;;;4.10;99.90;;;;;;5076479;28;20043;-71
2022/01/28 05:43:20;;;;;;;32.08;13.63;;;4.10;99.90;;;;;;5076984;28;20052;-69
2022/01/28 05:45:46;;;;;;;28.92;13.88;;;4.20;99.90;;;;;;5076174;28;20036;-70
2022/01/28 05:48:12;;;;;;;31.95;13.93;;;4.30;99.90;;;;;;5076966;28;20469;-70
2022/01/28 05:50:38;;;;;;;30.17;13.55;;;4.30;99.90;;;;;;5077388;28;20024;-70
2022/01/28 05:53:04;;;;;;;36.67;14.35;;;4.30;99.90;;;;;;5076870;28;20143;-70
2022/01/28 05:55:30;;;;;;;28.33;14.38;;;4.30;99.90;;;;;;5077467;28;20037;-70
2022/01/28 05:57:55;;;;;;;31.65;15.57;;;4.30;99.90;;;;;;5076788;28;20083;-70
2022/01/28 06:00:21;;;;;;;29.50;14.63;;;4.40;99.90;;;;;;5076035;28;20029;-70
2022/01/28 06:02:47;;;;;;;27.52;15.45;;;4.40;99.90;;;;;;5077075;28;20093;-70
2022/01/28 06:05:13;;;;;;;35.63;15.55;;;4.30;99.90;;;;;;5076056;28;20396;-70
2022/01/28 06:07:42;;;;;;;27.52;14.35;;;4.30;99.90;;;;;;5076829;28;20384;-70
2022/01/28 06:10:10;;;;;;;28.83;14.43;;;4.30;99.90;;;;;;5075934;28;20370;-71
2022/01/28 06:12:44;;;;;;;33.05;15.85;;;4.30;99.90;;;;;;5076772;28;20063;-71
2022/01/28 06:15:11;;;;;;;26.58;14.38;;;4.30;99.90;;;;;;5060295;28;20068;-70
2022/01/28 06:17:37;;;;;;;35.75;15.10;;;4.30;99.90;;;;;;5076666;28;20415;-69
2022/01/28 06:20:05;;;;;;;30.98;14.95;;;4.30;99.90;;;;;;5076598;28;20016;-68
2022/01/28 06:22:31;;;;;;;27.45;15.23;;;4.30;99.90;;;;;;5076556;28;20078;-69
2022/01/28 06:24:57;;;;;;;29.58;14.23;;;4.30;99.90;;;;;;5075740;28;20181;-67
2022/01/28 06:27:23;;;;;;;34.97;15.25;;;4.30;99.90;;;;;;5075987;28;20062;-70
2022/01/28 06:29:52;;;;;;;28.48;15.02;;;4.20;99.90;;;;;;5076497;28;20400;-68
2022/01/28 06:32:17;;;;;;;27.23;13.60;;;4.20;99.90;;;;;;5076445;28;20396;-69
2022/01/28 06:34:43;;;;;;;31.30;15.05;;;4.20;99.90;;;;;;5075710;28;20063;-69
2022/01/28 06:37:09;;;;;;;35.08;14.65;;;4.20;99.90;;;;;;5042441;28;20052;-70
2022/01/28 06:39:35;;;;;;;27.83;15.20;;;4.20;99.90;;;;;;5059023;28;20414;-69
2022/01/28 06:42:01;;;;;;;29.50;14.52;;;4.20;99.90;;;;;;5075747;28;20281;-68
2022/01/28 06:44:29;;;;;;;37.50;14.65;;;4.20;99.90;;;;;;5076402;28;20036;-70
2022/01/28 06:46:55;;;;;;;30.08;15.05;;;4.20;99.90;;;;;;5075943;28;20082;-70
2022/01/28 06:49:21;;;;;;;29.27;15.43;;;4.30;99.90;;;;;;5078456;28;20353;-70
2022/01/28 06:51:46;;;;;;;27.75;15.00;;;4.40;99.90;;;;;;5080162;28;20056;-71
2022/01/28 06:54:12;;;;;;;27.65;14.68;;;4.30;99.90;;;;;;5079444;28;20039;-69
2022/01/28 06:56:38;;;;;;;26.67;15.05;;;4.20;99.90;;;;;;5079260;28;20075;-70
2022/01/28 06:59:04;;;;;;;35.03;15.93;;;4.20;99.90;;;;;;5079941;28;20435;-69
2022/01/28 07:01:29;;;;;;;27.75;14.55;;;4.30;99.90;;;;;;5079914;28;20396;-69
2022/01/28 07:03:55;;;;;;;31.27;15.02;;;4.10;99.90;;;;;;5079289;28;20028;-69
2022/01/28 07:06:23;;;;;;;36.35;15.05;;;3.90;99.90;;;;;;5079905;28;20070;-71
2022/01/28 07:08:50;;;;;;;37.90;15.95;;;3.90;99.90;;;;;;5079769;28;20350;-70
2022/01/28 07:11:17;;;;;;;23.13;13.68;;;3.90;99.90;;;;;;5079771;28;20071;-72
2022/01/28 07:13:43;;;;;;;30.20;14.88;;;3.80;99.90;;;;;;5079873;28;20060;-70
2022/01/28 07:16:09;;;;;;;28.30;13.73;;;3.90;99.90;;;;;;5079647;28;20037;-69
2022/01/28 07:18:35;;;;;;;24.80;13.60;;;4.00;99.90;;;;;;5079619;28;20037;-70
2022/01/28 07:21:02;;;;;;;26.13;13.55;;;4.00;99.90;;;;;;5078887;28;20395;-72
2022/01/28 07:23:28;;;;;;;37.65;14.60;;;4.00;99.90;;;;;;5079585;28;20033;-71
2022/01/28 07:25:53;;;;;;;29.30;13.57;;;5.70;99.90;;;;;;5079445;28;20057;-70
2022/01/28 07:28:22;;;;;;;29.05;13.48;;;5.50;99.90;;;;;;5062058;28;20029;-70
2022/01/28 07:30:48;;;;;;;27.35;13.35;;;5.20;99.90;;;;;;5078617;28;20311;-69
2022/01/28 07:33:14;;;;;;;27.80;12.48;;;4.90;99.90;;;;;;5079327;28;20029;-70
2022/01/28 07:35:40;;;;;;;25.88;12.65;;;4.80;99.90;;;;;;5079357;28;20040;-69
2022/01/28 07:38:06;;;;;;;22.67;12.48;;;4.50;99.90;;;;;;5078387;28;20131;-70
2022/01/28 07:40:32;;;;;;;26.70;12.70;;;4.40;99.90;;;;;;5078567;28;20032;-69
2022/01/28 07:42:58;;;;;;;25.92;12.70;;;4.30;99.90;;;;;;5078967;28;20040;-69
2022/01/28 07:45:24;;;;;;;28.13;12.63;;;4.30;99.90;;;;;;5079014;28;20029;-70
2022/01/28 07:47:51;;;;;;;30.23;12.73;;;4.20;99.90;;;;;;5079239;28;20060;-70
2022/01/28 07:50:17;;;;;;;36.03;13.55;;;4.20;99.90;;;;;;5079035;28;20037;-70
2022/01/28 07:52:43;;;;;;;31.00;13.98;;;4.30;99.90;;;;;;5078751;28;20021;-68
2022/01/28 07:55:14;;;;;;;29.13;13.20;;;4.30;99.90;;;;;;5078952;28;20036;-70
2022/01/28 07:57:42;;;;;;;26.33;13.25;;;4.30;99.90;;;;;;5078887;28;20032;-69
2022/01/28 08:00:11;;;;;;;30.67;13.13;;;4.20;99.90;;;;;;5078537;28;20454;-70
2022/01/28 08:02:42;;;;;;;26.88;13.90;;;4.20;99.90;;;;;;5078861;28;20296;-70
2022/01/28 08:05:09;;;;;;;35.42;15.20;;;4.20;99.90;;;;;;5078853;28;20070;-70
2022/01/28 08:07:35;;;;;;;32.65;14.13;;;4.30;99.90;;;;;;5078647;28;20104;-70
2022/01/28 08:10:00;;;;;;;30.85;15.68;;;4.40;99.90;;;;;;5078748;28;20028;-70
2022/01/28 08:12:26;;;;;;;34.25;15.50;;;4.50;99.90;;;;;;5078971;28;20093;-70
2022/01/28 08:14:52;;;;;;;32.22;15.75;;;4.60;99.90;;;;;;5077844;28;20029;-69
2022/01/28 08:17:18;;;;;;;37.13;15.05;;;4.60;99.90;;;;;;5078957;28;20056;-69
2022/01/28 08:19:44;;;;;;;31.45;15.88;;;4.60;99.90;;;;;;5078465;28;20044;-70
2022/01/28 08:22:10;;;;;;;32.95;15.52;;;4.60;99.90;;;;;;5077803;28;20031;-70
2022/01/28 08:24:36;;;;;;;30.25;16.30;;;4.70;99.90;;;;;;5078429;28;20033;-69
2022/01/28 08:27:02;;;;;;;33.15;16.27;;;4.70;99.90;;;;;;5078315;28;20036;-69
2022/01/28 08:29:28;;;;;;;35.70;16.58;;;4.70;99.90;;;;;;5078292;28;20036;-69
2022/01/28 08:31:53;;;;;;;32.13;16.38;;;4.80;99.90;;;;;;5077272;28;20404;-70
2022/01/28 08:34:19;;;;;;;36.17;17.15;;;4.90;99.90;;;;;;5077908;28;20056;-71
2022/01/28 08:36:45;;;;;;;35.17;17.30;;;4.90;99.90;;;;;;5077601;28;20067;-70
2022/01/28 08:39:11;;;;;;;33.42;15.60;;;4.90;99.90;;;;;;5078059;28;20419;-70
2022/01/28 08:41:40;;;;;;;29.05;15.27;;;4.80;99.90;;;;;;5078017;28;20052;-70
2022/01/28 08:44:06;;;;;;;25.63;14.88;;;4.60;99.90;;;;;;5077972;28;20085;-71
2022/01/28 08:46:34;;;;;;;28.98;15.13;;;4.60;99.90;;;;;;5077950;28;20472;-70
2022/01/28 08:48:59;;;;;;;33.05;15.32;;;4.70;99.90;;;;;;5077876;28;20115;-71
2022/01/28 08:51:25;;;;;;;36.00;15.85;;;4.70;99.90;;;;;;5077122;28;20052;-70
2022/01/28 08:53:53;;;;;;;32.92;15.77;;;4.80;99.90;;;;;;5077817;28;20065;-71
2022/01/28 08:56:19;;;;;;;27.73;14.60;;;4.80;99.90;;;;;;5077735;28;20036;-70
2022/01/28 08:58:44;;;;;;;32.08;16.23;;;4.90;99.90;;;;;;5076963;28;20035;-70
2022/01/28 09:01:11;;;;;;;30.83;15.43;;;5.00;99.90;;;;;;5078225;28;20028;-70
2022/01/28 09:03:37;;;;;;;33.55;16.05;;;5.10;99.90;;;;;;5077874;28;20289;-70
2022/01/28 09:06:03;;;;;;;28.52;15.88;;;5.30;99.90;;;;;;5077758;28;20037;-71
2022/01/28 09:08:29;;;;;;;31.55;16.35;;;5.30;99.90;;;;;;5076768;28;20119;-71
2022/01/28 09:13:39;;;;;;;28.25;14.82;;;5.40;99.90;;;;;;5077612;28;20356;-70
2022/01/28 09:16:05;;;;;;;31.95;14.65;;;5.30;99.90;;;;;;5060804;28;20103;-70
2022/01/28 09:18:31;;;;;;;27.13;14.45;;;5.30;99.90;;;;;;5077259;28;20115;-70
2022/01/28 09:20:57;;;;;;;30.05;14.02;;;5.30;99.90;;;;;;5076710;28;20032;-71
2022/01/28 09:23:23;;;;;;;24.40;13.75;;;5.30;99.90;;;;;;5077509;28;20029;-71
2022/01/28 09:25:49;;;;;;;27.27;13.63;;;5.30;99.90;;;;;;5077377;28;20108;-70
2022/01/28 09:28:16;;;;;;;32.22;14.50;;;5.40;99.90;;;;;;5076556;28;20087;-71
2022/01/28 09:30:41;;;;;;;32.20;15.45;;;5.50;99.90;;;;;;5077245;28;20032;-70
2022/01/28 09:33:08;;;;;;;28.67;15.00;;;5.60;99.90;;;;;;5077304;28;20036;-71
2022/01/28 09:35:34;;;;;;;28.23;14.02;;;5.70;99.90;;;;;;5077032;28;20052;-71
2022/01/28 09:38:00;;;;;;;29.52;14.52;;;5.80;99.90;;;;;;5076160;28;20307;-70
2022/01/28 09:40:27;;;;;;;28.33;14.85;;;6.00;99.90;;;;;;5077122;28;20020;-69
2022/01/28 09:42:54;;;;;;;31.60;14.95;;;6.10;99.90;;;;;;5077023;28;20315;-70
2022/01/28 09:45:22;;;;;;;26.02;14.07;;;6.10;99.90;;;;;;5076441;28;20400;-70
2022/01/28 09:47:51;;;;;;;25.73;14.07;;;6.30;99.90;;;;;;5076892;28;20024;-70
2022/01/28 09:50:18;;;;;;;30.45;15.25;;;6.40;99.90;;;;;;5076895;28;20066;-69
2022/01/28 09:52:44;;;;;;;28.30;15.15;;;6.60;99.90;;;;;;5076891;28;20029;-69
2022/01/28 09:55:10;;;;;;;29.30;14.82;;;6.70;99.90;;;;;;5076875;28;20036;-69
2022/01/28 09:57:36;;;;;;;30.52;13.93;;;6.90;99.90;;;;;;5076107;28;20032;-69
2022/01/28 10:00:04;;;;;;;32.13;13.68;;;6.70;99.90;;;;;;5076858;28;20296;-71
2022/01/28 10:02:50;;;;;;;36.67;14.52;;;6.70;99.90;;;;;;5076225;28;20035;-70
2022/01/28 10:05:33;;;;;;;26.27;12.07;;;6.80;99.90;;;;;;5076860;28;20301;-70
2022/01/28 10:08:02;;;;;;;25.17;9.95;;;6.90;99.90;;;;;;5076047;28;20047;-71
2022/01/28 10:10:48;;;;;;;18.42;8.90;;;7.10;99.90;;;;;;5076724;28;20040;-70
2022/01/28 10:13:27;;;;;;;14.90;7.20;;;7.70;99.90;;;;;;5076659;28;20044;-71
2022/01/28 10:15:58;;;;;;;13.75;7.28;;;8.80;99.90;;;;;;5075975;28;20032;-70
2022/01/28 10:18:38;;;;;;;20.37;7.20;;;9.90;99.90;;;;;;5076500;28;20292;-69
2022/01/28 10:21:16;;;;;;;15.77;6.85;;;10.70;99.90;;;;;;5075834;28;20032;-70
2022/01/28 10:23:53;;;;;;;20.67;6.97;;;10.50;99.90;;;;;;5077827;28;20124;-69
2022/01/28 10:26:27;;;;;;;14.35;6.15;;;10.60;99.90;;;;;;5080690;28;20033;-69
2022/01/28 10:28:53;;;;;;;14.15;6.13;;;11.90;99.90;;;;;;5080710;28;20064;-69
2022/01/28 10:31:19;;;;;;;16.73;6.47;;;12.70;99.90;;;;;;5080515;28;20052;-70
2022/01/28 10:33:45;;;;;;;11.95;6.00;;;13.60;99.90;;;;;;5080672;28;20431;-67
2022/01/28 10:36:10;;;;;;;12.45;6.65;;;14.30;99.90;;;;;;5080315;28;20045;-69
2022/01/28 10:38:41;;;;;;;13.50;6.00;;;14.00;99.90;;;;;;5079608;28;20029;-69
2022/01/28 10:41:16;;;;;;;18.73;5.82;;;14.60;99.90;;;;;;5081015;28;20035;-70
2022/01/28 10:43:51;;;;;;;13.25;6.20;;;13.80;99.90;;;;;;5080415;28;20021;-71
2022/01/28 10:46:26;;;;;;;17.30;6.03;;;13.00;99.90;;;;;;5080334;28;20036;-70
2022/01/28 10:49:01;;;;;;;11.63;5.63;;;14.20;99.90;;;;;;5080368;28;20024;-70
2022/01/28 10:51:43;;;;;;;14.77;5.70;;;15.10;99.90;;;;;;5080276;28;20029;-71
2022/01/28 10:54:10;;;;;;;15.25;5.93;;;15.70;99.90;;;;;;5079391;28;20029;-69
2022/01/28 10:57:00;;;;;;;13.95;5.32;;;16.20;99.90;;;;;;5079471;28;20404;-69
2022/01/28 10:59:27;;;;;;;11.98;5.22;;;16.60;99.90;;;;;;5080186;28;20021;-69
2022/01/28 11:01:53;;;;;;;13.85;5.75;;;16.80;99.90;;;;;;5080557;28;20094;-70
2022/01/28 11:04:20;;;;;;;14.80;5.45;;;17.10;99.90;;;;;;5079844;28;20033;-70
2022/01/28 11:06:47;;;;;;;10.93;5.68;;;16.50;99.90;;;;;;5079265;28;20044;-70
2022/01/28 11:09:17;;;;;;;12.77;5.35;;;17.30;99.90;;;;;;5079876;28;20036;-70
2022/01/28 11:11:44;;;;;;;14.43;6.13;;;17.00;99.90;;;;;;5079938;28;20074;-70
2022/01/28 11:14:10;;;;;;;13.25;5.97;;;17.00;99.90;;;;;;5079906;28;20032;-71
2022/01/28 11:16:37;;;;;;;14.57;6.40;;;16.70;99.90;;;;;;5079027;28;20032;-70
2022/01/28 11:19:05;;;;;;;15.57;6.85;;;15.80;99.90;;;;;;5079760;28;20292;-71
2022/01/28 11:21:34;;;;;;;14.20;6.90;;;14.40;99.90;;;;;;5078928;28;20020;-71
2022/01/28 11:24:35;;;;;;;15.32;6.05;;;14.70;99.90;;;;;;5078880;28;20028;-69
2022/01/28 11:27:04;;;;;;;13.30;6.13;;;15.90;99.90;;;;;;5079491;28;20270;-70
2022/01/28 11:29:30;;;;;;;15.73;6.05;;;16.80;99.90;;;;;;5079496;28;20081;-70
2022/01/28 11:32:08;;;;;;;17.25;5.93;;;17.40;99.90;;;;;;5079629;28;20397;-71
2022/01/28 11:34:35;;;;;;;14.02;4.82;;;18.10;99.90;;;;;;5078642;28;20091;-70
2022/01/28 11:37:13;;;;;;;9.43;4.70;;;17.00;99.90;;;;;;5078267;28;20127;-70
2022/01/28 11:39:42;;;;;;;9.68;4.45;;;14.60;99.90;;;;;;5078718;28;20050;-70
2022/01/28 11:42:10;;;;;;;12.68;4.75;;;14.20;99.90;;;;;;5079892;28;20030;-70
2022/01/28 11:44:51;;;;;;;9.88;4.55;;;14.80;99.90;;;;;;5078921;28;20029;-70
2022/01/28 11:47:39;;;;;;;14.77;4.95;;;15.00;99.90;;;;;;5078803;28;20055;-71
2022/01/28 11:50:17;;;;;;;11.80;4.65;;;14.10;99.90;;;;;;5079183;28;20124;-71
2022/01/28 11:52:48;;;;;;;12.45;5.10;;;15.00;99.90;;;;;;5079426;28;20028;-70
2022/01/28 11:55:14;;;;;;;10.38;4.50;;;15.90;99.90;;;;;;5079204;28;20032;-70
2022/01/28 11:58:05;;;;;;;10.60;4.75;;;16.10;99.90;;;;;;5079457;28;20396;-70
2022/01/28 12:00:50;;;;;;;11.10;4.15;;;14.60;99.90;;;;;;5075877;28;20472;-70
2022/01/28 12:03:18;;;;;;;10.18;3.58;;;13.50;99.90;;;;;;5079427;28;20116;-70
2022/01/28 12:05:43;;;;;;;9.82;3.35;;;13.70;99.90;;;;;;5079366;28;20020;-71
2022/01/28 12:08:11;;;;;;;8.20;3.70;;;13.70;99.90;;;;;;5078996;28;20410;-67
2022/01/28 12:10:42;;;;;;;12.13;3.70;;;13.40;99.90;;;;;;5078772;28;20101;-70
2022/01/28 12:13:13;;;;;;;10.35;3.10;;;13.30;99.90;;;;;;5078709;28;20301;-71
2022/01/28 12:15:59;;;;;;;12.25;4.60;;;13.10;99.90;;;;;;5062445;28;20032;-72
2022/01/28 12:18:26;;;;;;;9.50;4.45;;;12.80;99.90;;;;;;5078154;28;20097;-71
2022/01/28 12:20:53;;;;;;;9.95;4.70;;;12.60;99.90;;;;;;5078921;28;20024;-70
2022/01/28 12:23:19;;;;;;;11.23;5.13;;;11.80;99.90;;;;;;5078523;28;20044;-71
2022/01/28 12:25:45;;;;;;;11.02;6.00;;;11.50;99.90;;;;;;5078417;28;20074;-71
2022/01/28 12:28:18;;;;;;;15.07;6.40;;;11.20;99.90;;;;;;5077588;28;20040;-68
2022/01/28 12:31:24;;;;;;;11.13;6.20;;;10.80;99.90;;;;;;5060961;28;20048;-70
2022/01/28 12:33:59;;;;;;;17.73;6.88;;;10.60;99.90;;;;;;5077851;28;20051;-70
2022/01/28 12:36:38;;;;;;;12.88;6.95;;;10.70;99.90;;;;;;5078098;28;20106;-70
2022/01/28 12:39:12;;;;;;;13.27;7.93;;;10.80;99.90;;;;;;5078179;28;20025;-70
2022/01/28 12:42:36;;;;;;;20.13;9.57;;;11.20;99.90;;;;;;5078823;28;20053;-71
2022/01/28 12:44:38;;;;;;;16.98;10.35;;;11.50;99.90;;;;;;5076711;28;20042;-70
2022/01/28 12:47:12;;;;;;;16.40;10.50;;;11.30;99.90;;;;;;5077462;28;20028;-68
2022/01/28 12:49:41;;;;;;;19.35;10.85;;;10.80;99.90;;;;;;5077937;28;20455;-70
2022/01/28 12:52:08;;;;;;;22.00;13.50;;;10.90;99.90;;;;;;5076877;28;20020;-70
2022/01/28 12:54:43;;;;;;;26.45;15.23;;;11.00;99.90;;;;;;5077675;28;20029;-69
2022/01/28 12:57:11;;;;;;;27.33;17.15;;;10.70;99.90;;;;;;5077638;28;20025;-69
2022/01/28 12:59:39;;;;;;;30.85;18.88;;;10.40;99.90;;;;;;5077653;28;20032;-66
2022/01/28 13:02:05;;;;;;;33.13;18.88;;;10.00;99.90;;;;;;5077556;28;20084;-69
2022/01/28 13:10:01;;;;;;;33.72;20.27;;;10.30;99.90;;;;;;5077230;28;20051;-67
2022/01/28 13:12:31;;;;;;;33.10;20.40;;;9.50;99.90;;;;;;5076291;28;20182;-71
2022/01/28 13:15:05;;;;;;;34.75;20.67;;;9.20;99.90;;;;;;5076658;28;20060;-70
2022/01/28 13:17:31;;;;;;;31.20;20.20;;;8.80;99.90;;;;;;5077393;28;20400;-72
2022/01/28 13:19:59;;;;;;;32.38;20.77;;;8.40;99.90;;;;;;5076622;28;20040;-72
2022/01/28 13:22:29;;;;;;;31.20;19.23;;;8.50;99.90;;;;;;5077114;28;20075;-69
2022/01/28 13:24:56;;;;;;;31.70;19.10;;;8.70;99.90;;;;;;5076320;28;20024;-70
2022/01/28 13:27:37;;;;;;;29.55;18.98;;;8.70;99.90;;;;;;5059524;28;20379;-70
2022/01/28 13:30:13;;;;;;;31.65;19.35;;;8.50;99.90;;;;;;5076330;28;20469;-71
2022/01/28 13:32:41;;;;;;;30.23;18.40;;;8.30;99.90;;;;;;5077571;28;20032;-71
2022/01/28 13:35:25;;;;;;;35.22;19.98;;;8.30;99.90;;;;;;5076708;28;20328;-70
2022/01/28 13:38:01;;;;;;;31.00;17.70;;;8.50;99.90;;;;;;5077282;28;20033;-72
2022/01/28 13:40:27;;;;;;;28.92;19.13;;;8.30;99.90;;;;;;5076380;28;20028;-71
2022/01/28 13:43:13;;;;;;;34.35;21.33;;;8.20;99.90;;;;;;5076866;28;20162;-70
2022/01/28 13:46:05;;;;;;;34.55;21.25;;;8.30;99.90;;;;;;5076825;28;20427;-71
2022/01/28 13:48:40;;;;;;;32.95;20.10;;;7.90;99.90;;;;;;5077039;28;20111;-67
2022/01/28 13:51:16;;;;;;;33.97;21.00;;;8.00;99.90;;;;;;5076733;28;20082;-70
2022/01/28 13:56:36;;;;;;;30.63;18.92;;;7.30;99.90;;;;;;5076931;28;20058;-69
2022/01/28 13:59:29;;;;;;;31.50;19.73;;;6.70;99.90;;;;;;5076208;28;20112;-69
2022/01/28 14:01:59;;;;;;;;;;;6.40;99.90;;;;;;5076490;28;20063;-71
2022/01/28 14:04:35;;;;;;;34.58;19.75;;;6.10;99.90;;;;;;5076145;28;19912;-70
2022/01/28 14:07:08;;;;;;;31.13;18.92;;;6.20;99.90;;;;;;5075957;28;20091;-69
2022/01/28 14:09:43;;;;;;;33.53;19.77;;;6.00;99.90;;;;;;5059546;28;20033;-71
2022/01/28 14:12:11;;;;;;;31.92;19.20;;;6.20;99.90;;;;;;5075915;28;20037;-73
2022/01/28 14:14:45;;;;;;;32.17;19.73;;;6.20;99.90;;;;;;5076736;28;20157;-72
2022/01/28 14:17:11;;;;;;;35.53;20.38;;;6.50;99.90;;;;;;5076312;28;20029;-73
2022/01/28 14:19:41;;;;;;;38.10;22.75;;;6.60;99.90;;;;;;5076041;28;20047;-69
2022/01/28 14:22:12;;;;;;;36.65;20.95;;;6.80;99.90;;;;;;5076371;28;20048;-72
2022/01/28 14:24:42;;;;;;;41.17;22.00;;;7.00;99.90;;;;;;5075973;28;20426;-71
2022/01/28 14:32:07;;;;;;;47.63;24.67;;;7.30;99.90;;;;;;5076700;28;20032;-65